createdAt,value
2019-02-21T00:00:04.087Z,94.90
2019-02-21T00:02:32.349Z,94.90
2019-02-21T00:05:00.602Z,95.00
2019-02-21T00:07:28.884Z,95.10
2019-02-21T00:09:57.153Z,94.90
2019-02-21T00:12:25.455Z,95.20
2019-02-21T00:14:53.784Z,95.20
2019-02-21T00:17:22.118Z,95.20
2019-02-21T00:19:50.384Z,95.40
2019-02-21T00:22:18.668Z,95.50
2019-02-21T00:24:46.986Z,95.60
2019-02-21T00:27:15.242Z,95.70
2019-02-21T00:29:43.550Z,95.70
2019-02-21T00:32:11.922Z,95.90
2019-02-21T00:34:40.184Z,96.00
2019-02-21T00:37:08.553Z,96.00
2019-02-21T00:39:36.842Z,96.00
2019-02-21T00:42:05.115Z,96.00
2019-02-21T00:44:33.406Z,96.20
2019-02-21T00:47:01.686Z,95.90
2019-02-21T00:49:29.959Z,95.90
2019-02-21T00:51:58.258Z,95.90
2019-02-21T00:54:26.548Z,96.00
2019-02-21T00:56:55.004Z,95.90
2019-02-21T00:59:23.300Z,96.00
2019-02-21T01:01:51.572Z,96.20
2019-02-21T01:04:19.939Z,96.30
2019-02-21T01:06:48.219Z,96.40
2019-02-21T01:09:16.477Z,96.50
2019-02-21T01:11:44.742Z,96.50
2019-02-21T01:14:13.031Z,96.70
2019-02-21T01:16:41.293Z,96.70
2019-02-21T01:19:09.547Z,97.10
2019-02-21T01:21:37.844Z,96.90
2019-02-21T01:24:06.201Z,97.00
2019-02-21T01:26:34.538Z,97.00
2019-02-21T01:29:02.831Z,97.00
2019-02-21T01:31:31.095Z,97.00
2019-02-21T01:33:59.363Z,97.00
2019-02-21T01:36:27.648Z,97.10
2019-02-21T01:38:56.027Z,97.10
2019-02-21T01:41:24.279Z,97.00
2019-02-21T01:43:52.558Z,96.90
2019-02-21T01:46:20.857Z,97.10
2019-02-21T01:48:49.129Z,97.10
2019-02-21T01:51:17.408Z,97.00
2019-02-21T01:53:45.703Z,97.00
2019-02-21T01:56:14.000Z,97.10
2019-02-21T01:58:42.289Z,96.90
2019-02-21T02:01:10.549Z,97.00
2019-02-21T02:03:38.892Z,97.10
2019-02-21T02:06:07.195Z,97.00
2019-02-21T02:08:35.471Z,97.10
2019-02-21T02:11:03.724Z,96.90
2019-02-21T02:13:32.014Z,96.80
2019-02-21T02:16:00.281Z,96.70
2019-02-21T02:18:28.698Z,96.60
2019-02-21T02:20:56.988Z,96.50
2019-02-21T02:23:25.262Z,96.50
2019-02-21T02:25:54.112Z,96.50
2019-02-21T02:28:22.454Z,96.30
2019-02-21T02:30:50.715Z,96.40
2019-02-21T02:33:19.050Z,96.20
2019-02-21T02:35:47.416Z,96.10
2019-02-21T02:38:15.705Z,96.10
2019-02-21T02:40:44.987Z,96.20
2019-02-21T02:43:13.280Z,96.20
2019-02-21T02:45:41.707Z,96.20
2019-02-21T02:48:10.045Z,96.20
2019-02-21T02:50:38.427Z,96.10
2019-02-21T02:53:07.016Z,96.00
2019-02-21T02:55:35.348Z,96.10
2019-02-21T02:58:06.420Z,96.00
2019-02-21T03:00:33.701Z,96.00
2019-02-21T03:03:01.964Z,96.10
2019-02-21T03:05:30.266Z,96.00
2019-02-21T03:07:58.529Z,95.90
2019-02-21T03:10:26.788Z,95.90
2019-02-21T03:12:55.080Z,95.90
2019-02-21T03:15:23.341Z,95.90
2019-02-21T03:17:51.600Z,96.00
2019-02-21T03:20:19.898Z,96.10
2019-02-21T03:22:48.160Z,96.20
2019-02-21T03:25:16.417Z,96.30
2019-02-21T03:27:44.714Z,96.20
2019-02-21T03:30:13.186Z,96.30
2019-02-21T03:32:41.487Z,96.50
2019-02-21T03:35:09.790Z,96.60
2019-02-21T03:37:38.123Z,96.60
2019-02-21T03:40:08.692Z,96.50
2019-02-21T03:42:37.083Z,96.00
2019-02-21T03:45:24.793Z,96.30
2019-02-21T03:47:53.078Z,96.20
2019-02-21T03:50:21.412Z,96.30
2019-02-21T03:52:49.674Z,96.30
2019-02-21T03:55:37.392Z,96.20
2019-02-21T03:58:05.720Z,96.40
2019-02-21T04:00:34.015Z,96.40
2019-02-21T04:03:02.299Z,96.30
2019-02-21T04:05:30.633Z,96.30
2019-02-21T04:07:58.945Z,96.20
2019-02-21T04:10:27.347Z,96.30
2019-02-21T04:12:55.709Z,96.20
2019-02-21T04:15:24.042Z,96.60
2019-02-21T04:17:52.317Z,96.20
2019-02-21T04:20:20.621Z,96.30
2019-02-21T04:22:48.919Z,96.40
2019-02-21T04:25:17.222Z,96.20
2019-02-21T04:27:45.473Z,96.10
2019-02-21T04:30:13.748Z,96.20
2019-02-21T04:32:42.037Z,96.10
2019-02-21T04:35:10.371Z,96.10
2019-02-21T04:37:38.637Z,96.20
2019-02-21T04:40:07.194Z,96.20
2019-02-21T04:42:35.555Z,96.40
2019-02-21T04:45:04.284Z,96.50
2019-02-21T04:47:32.561Z,96.50
2019-02-21T04:50:00.901Z,96.60
2019-02-21T04:52:29.245Z,96.50
2019-02-21T04:54:57.772Z,96.20
2019-02-21T04:57:26.508Z,96.00
2019-02-21T04:59:56.722Z,95.80
2019-02-21T05:02:28.884Z,95.80
2019-02-21T05:04:54.992Z,95.80
2019-02-21T05:07:23.247Z,95.70
2019-02-21T05:09:57.893Z,95.70
2019-02-21T05:12:21.540Z,95.70
2019-02-21T05:14:49.792Z,95.80
2019-02-21T05:17:18.088Z,95.80
2019-02-21T05:19:46.368Z,95.60
2019-02-21T05:22:14.623Z,95.70
2019-02-21T05:24:42.904Z,95.80
2019-02-21T05:27:12.803Z,95.80
2019-02-21T05:29:41.061Z,95.90
2019-02-21T05:35:13.727Z,96.30
2019-02-21T05:38:01.734Z,96.40
2019-02-21T05:41:00.133Z,96.50
2019-02-21T05:43:31.408Z,96.70
2019-02-21T05:46:01.724Z,96.70
2019-02-21T05:48:31.653Z,96.70
2019-02-21T05:56:46.467Z,97.20
2019-02-21T05:59:19.359Z,97.30
2019-02-21T06:01:52.207Z,97.50
2019-02-21T06:04:22.177Z,97.30
2019-02-21T06:06:57.924Z,97.50
2019-02-21T06:09:27.906Z,97.20
2019-02-21T06:12:04.059Z,97.30
2019-02-21T06:14:43.255Z,97.50
2019-02-21T06:20:09.798Z,98.00
2019-02-21T06:22:48.984Z,97.80
2019-02-21T06:25:24.840Z,98.20
2019-02-21T06:27:54.738Z,98.20
2019-02-21T06:30:30.553Z,98.40
2019-02-21T06:33:05.082Z,98.50
2019-02-21T06:35:28.803Z,98.40
2019-02-21T06:37:57.097Z,98.40
2019-02-21T06:40:25.380Z,98.50
2019-02-21T06:42:53.707Z,98.80
2019-02-21T06:45:22.122Z,98.90
2019-02-21T06:47:50.373Z,99.40
2019-02-21T06:50:26.428Z,99.40
2019-02-21T06:52:48.660Z,99.30
2019-02-21T06:55:20.607Z,99.20
2019-02-21T06:57:49.037Z,99.30
2019-02-21T07:00:17.522Z,99.60
2019-02-21T07:02:45.785Z,99.50
2019-02-21T07:05:14.049Z,99.50
2019-02-21T07:07:42.352Z,99.60
2019-02-21T07:10:10.684Z,99.90
2019-02-21T07:12:38.944Z,99.50
2019-02-21T07:15:09.877Z,99.10
2019-02-21T07:17:48.541Z,99.00
2019-02-21T07:20:08.790Z,98.90
2019-02-21T07:22:37.089Z,98.60
2019-02-21T07:25:32.496Z,98.60
2019-02-21T07:28:11.364Z,98.50
2019-02-21T07:30:30.733Z,98.20
2019-02-21T07:32:58.995Z,98.30
2019-02-21T07:35:27.281Z,98.20
2019-02-21T07:37:55.568Z,98.20
2019-02-21T07:40:23.944Z,98.10
2019-02-21T07:42:52.242Z,98.20
2019-02-21T07:45:20.489Z,98.10
2019-02-21T07:47:49.192Z,98.00
2019-02-21T07:50:17.503Z,98.00
2019-02-21T07:52:45.786Z,97.90
2019-02-21T07:55:14.133Z,97.70
2019-02-21T07:57:42.480Z,97.80
2019-02-21T08:00:12.336Z,97.70
2019-02-21T08:02:40.611Z,97.70
2019-02-21T08:05:08.992Z,97.70
2019-02-21T08:07:37.260Z,97.60
2019-02-21T08:10:08.393Z,97.60
2019-02-21T08:12:35.991Z,97.50
2019-02-21T08:15:05.404Z,97.40
2019-02-21T08:17:33.666Z,97.50
2019-02-21T08:20:08.530Z,97.60
2019-02-21T08:22:32.040Z,97.10
2019-02-21T08:25:00.393Z,97.00
2019-02-21T08:27:28.775Z,97.00
2019-02-21T08:29:57.835Z,96.70
2019-02-21T08:32:27.889Z,96.80
2019-02-21T08:34:56.228Z,96.80
2019-02-21T08:37:24.507Z,96.60
2019-02-21T08:39:52.789Z,96.50
2019-02-21T08:42:21.091Z,96.40
2019-02-21T08:44:49.359Z,96.30
2019-02-21T08:47:17.632Z,96.30
2019-02-21T08:49:45.921Z,96.20
2019-02-21T08:52:14.227Z,96.20
2019-02-21T08:54:42.498Z,96.00
2019-02-21T08:57:10.788Z,96.00
2019-02-21T08:59:39.073Z,96.00
2019-02-21T09:02:07.408Z,95.90
2019-02-21T09:04:35.695Z,95.80
2019-02-21T09:07:03.971Z,95.80
2019-02-21T09:09:33.483Z,95.70
2019-02-21T09:12:02.012Z,96.00
2019-02-21T09:14:30.284Z,95.40
2019-02-21T09:16:58.543Z,95.40
2019-02-21T09:19:26.840Z,95.30
2019-02-21T09:21:55.126Z,95.30
2019-02-21T09:24:37.464Z,95.40
2019-02-21T09:26:53.475Z,95.30
2019-02-21T09:29:22.969Z,95.10
2019-02-21T09:31:51.231Z,94.90
2019-02-21T09:34:21.397Z,95.00
2019-02-21T09:36:49.508Z,94.90
2019-02-21T09:39:17.805Z,94.80
2019-02-21T09:41:46.181Z,94.80
2019-02-21T09:44:14.468Z,94.70
2019-02-21T09:46:42.744Z,94.50
2019-02-21T09:49:11.039Z,94.50
2019-02-21T09:51:39.301Z,94.30
2019-02-21T09:54:07.560Z,94.20
2019-02-21T09:56:35.965Z,94.10
2019-02-21T09:59:04.305Z,94.00
2019-02-21T10:01:32.569Z,93.90
2019-02-21T10:04:00.898Z,93.70
2019-02-21T10:06:29.197Z,93.60
2019-02-21T10:08:57.538Z,93.60
2019-02-21T10:11:25.813Z,93.80
2019-02-21T10:13:54.075Z,93.50
2019-02-21T10:16:22.344Z,93.30
2019-02-21T10:18:50.675Z,93.30
2019-02-21T10:21:18.945Z,93.20
2019-02-21T10:23:47.224Z,93.30
2019-02-21T10:26:15.517Z,93.30
2019-02-21T10:28:45.223Z,93.40
2019-02-21T10:31:13.681Z,93.30
2019-02-21T10:33:46.959Z,93.30
2019-02-21T10:36:12.090Z,93.40
2019-02-21T10:38:40.365Z,93.60
2019-02-21T10:41:08.982Z,93.20
2019-02-21T10:43:37.384Z,93.10
2019-02-21T10:46:05.653Z,92.70
2019-02-21T10:48:34.032Z,92.50
2019-02-21T10:51:02.328Z,92.50
2019-02-21T10:53:30.603Z,91.90
2019-02-21T10:55:58.926Z,91.80
2019-02-21T10:58:27.198Z,91.80
2019-02-21T11:00:55.468Z,91.50
2019-02-21T11:03:23.748Z,91.70
2019-02-21T11:05:52.030Z,91.70
2019-02-21T11:08:20.318Z,91.60
2019-02-21T11:10:48.611Z,91.20
2019-02-21T11:13:16.881Z,91.20
2019-02-21T11:15:45.140Z,91.30
2019-02-21T11:18:13.450Z,91.10
2019-02-21T11:20:41.779Z,91.00
2019-02-21T11:23:10.048Z,90.70
2019-02-21T11:25:38.351Z,90.60
2019-02-21T11:28:06.628Z,90.60
2019-02-21T11:30:34.989Z,89.70
2019-02-21T11:33:03.303Z,89.70
2019-02-21T11:35:31.642Z,87.90
2019-02-21T11:37:59.905Z,86.30
2019-02-21T11:40:28.196Z,86.20
2019-02-21T11:42:56.456Z,86.20
2019-02-21T11:45:24.717Z,85.90
2019-02-21T11:47:53.007Z,82.30
2019-02-21T11:50:21.263Z,81.10
2019-02-21T11:52:49.539Z,81.70
2019-02-21T11:55:25.379Z,82.20
2019-02-21T11:57:53.651Z,81.40
2019-02-21T12:00:24.816Z,81.70
2019-02-21T12:02:53.098Z,80.10
2019-02-21T12:05:30.607Z,76.20
2019-02-21T12:07:51.459Z,73.20
2019-02-21T12:10:19.803Z,71.30
2019-02-21T12:12:48.065Z,69.50
2019-02-21T12:15:16.968Z,72.00
2019-02-21T12:17:45.389Z,73.20
2019-02-21T12:20:18.257Z,73.40
2019-02-21T12:22:47.063Z,74.10
2019-02-21T12:25:20.193Z,75.20
2019-02-21T12:27:48.461Z,73.50
2019-02-21T12:30:20.592Z,71.80
2019-02-21T12:32:49.032Z,70.50
2019-02-21T12:35:28.819Z,72.00
2019-02-21T12:37:47.284Z,76.00
2019-02-21T12:40:20.710Z,78.40
2019-02-21T12:42:49.084Z,80.00
2019-02-21T12:45:25.520Z,79.60
2019-02-21T12:47:54.306Z,81.00
2019-02-21T12:50:22.735Z,80.70
2019-02-21T12:52:51.029Z,80.90
2019-02-21T12:55:28.035Z,81.70
2019-02-21T12:57:49.313Z,80.50
2019-02-21T13:00:19.153Z,80.00
2019-02-21T13:02:47.418Z,81.70
2019-02-21T13:05:15.672Z,80.50
2019-02-21T13:07:44.072Z,80.40
2019-02-21T13:10:14.674Z,80.80
2019-02-21T13:12:42.952Z,80.70
2019-02-21T13:15:12.989Z,81.40
2019-02-21T13:17:41.248Z,81.30
2019-02-21T13:20:11.256Z,81.10
2019-02-21T13:22:39.668Z,80.40
2019-02-21T13:25:27.374Z,80.00
2019-02-21T13:27:55.679Z,80.20
2019-02-21T13:30:23.949Z,79.90
2019-02-21T13:32:52.306Z,79.70
2019-02-21T13:35:20.640Z,79.60
2019-02-21T13:37:48.969Z,79.20
2019-02-21T13:40:20.559Z,78.90
2019-02-21T13:42:47.695Z,79.10
2019-02-21T13:45:18.895Z,80.00
2019-02-21T13:47:47.162Z,79.10
2019-02-21T13:50:23.677Z,78.70
2019-02-21T13:52:51.720Z,78.70
2019-02-21T13:55:19.990Z,78.10
2019-02-21T13:57:48.353Z,77.70
2019-02-21T14:00:22.286Z,77.80
2019-02-21T14:02:50.751Z,77.80
2019-02-21T14:05:19.102Z,77.60
2019-02-21T14:07:47.360Z,77.70
2019-02-21T14:10:15.728Z,76.70
2019-02-21T14:12:44.006Z,77.00
2019-02-21T14:15:43.693Z,77.20
2019-02-21T14:18:11.979Z,78.00
2019-02-21T14:20:45.373Z,78.30
2019-02-21T14:23:10.396Z,78.40
2019-02-21T14:25:41.034Z,78.60
2019-02-21T14:28:08.721Z,78.60
2019-02-21T14:30:37.061Z,79.10
2019-02-21T14:33:05.495Z,78.80
2019-02-21T14:35:33.783Z,79.80
2019-02-21T14:38:02.046Z,78.90
2019-02-21T14:40:49.779Z,78.40
2019-02-21T14:43:18.172Z,77.90
2019-02-21T14:45:46.477Z,78.10
2019-02-21T14:48:14.854Z,78.40
2019-02-21T14:50:43.131Z,78.30
2019-02-21T14:53:11.411Z,78.30
2019-02-21T14:55:39.697Z,77.80
2019-02-21T14:58:07.988Z,78.00
2019-02-21T15:00:36.286Z,78.60
2019-02-21T15:03:04.898Z,78.00
2019-02-21T15:05:33.227Z,78.80
2019-02-21T15:08:01.502Z,79.10
2019-02-21T15:10:29.806Z,80.00
2019-02-21T15:12:58.162Z,79.20
2019-02-21T15:15:26.869Z,78.60
2019-02-21T15:18:06.621Z,79.40
2019-02-21T15:20:35.903Z,79.00
2019-02-21T15:22:55.173Z,79.00
2019-02-21T15:25:23.469Z,79.70
2019-02-21T15:27:51.742Z,80.10
2019-02-21T15:30:41.170Z,80.10
2019-02-21T15:33:09.512Z,79.70
2019-02-21T15:35:37.788Z,80.10
2019-02-21T15:38:06.258Z,80.10
2019-02-21T15:40:34.520Z,79.80
2019-02-21T15:43:05.292Z,79.80
2019-02-21T15:45:32.801Z,79.10
2019-02-21T15:48:01.254Z,79.00
2019-02-21T15:50:29.528Z,79.00
2019-02-21T15:52:58.495Z,79.30
2019-02-21T15:55:26.760Z,80.70
2019-02-21T15:58:03.387Z,80.20
2019-02-21T16:00:25.347Z,79.50
2019-02-21T16:02:53.618Z,79.80
2019-02-21T16:05:21.890Z,80.10
2019-02-21T16:07:50.269Z,80.30
2019-02-21T16:10:24.521Z,80.30
2019-02-21T16:12:53.191Z,80.60
2019-02-21T16:15:21.681Z,81.20
2019-02-21T16:17:50.084Z,81.60
2019-02-21T16:20:19.686Z,82.00
2019-02-21T16:22:48.036Z,81.20
2019-02-21T16:25:35.739Z,81.10
2019-02-21T16:28:04.127Z,81.40
2019-02-21T16:30:32.403Z,82.00
2019-02-21T16:33:00.728Z,82.30
2019-02-21T16:35:29.008Z,82.40
2019-02-21T16:37:57.270Z,82.90
2019-02-21T16:40:25.527Z,83.00
2019-02-21T16:42:53.819Z,84.20
2019-02-21T16:45:23.020Z,83.40
2019-02-21T16:47:51.455Z,84.70
2019-02-21T16:50:29.449Z,85.20
2019-02-21T16:52:49.761Z,85.90
2019-02-21T16:55:43.280Z,85.00
2019-02-21T16:58:11.547Z,84.40
2019-02-21T17:00:51.404Z,84.30
2019-02-21T17:03:09.845Z,85.30
2019-02-21T17:05:38.113Z,86.20
2019-02-21T17:08:06.386Z,87.20
2019-02-21T17:10:34.704Z,86.70
2019-02-21T17:13:02.989Z,87.80
2019-02-21T17:15:31.253Z,89.20
2019-02-21T17:18:03.930Z,89.60
2019-02-21T17:20:29.609Z,90.00
2019-02-21T17:22:57.990Z,90.30
2019-02-21T17:25:26.312Z,90.50
2019-02-21T17:27:54.572Z,90.70
2019-02-21T17:30:22.902Z,90.60
2019-02-21T17:32:51.188Z,90.60
2019-02-21T17:35:19.460Z,90.60
2019-02-21T17:37:47.761Z,90.60
2019-02-21T17:40:20.827Z,90.60
2019-02-21T17:42:49.099Z,91.00
2019-02-21T17:45:17.413Z,90.90
2019-02-21T17:47:45.828Z,91.30
2019-02-21T17:50:16.019Z,91.70
2019-02-21T17:52:44.349Z,91.60
2019-02-21T17:55:12.706Z,92.00
2019-02-21T17:57:41.361Z,92.10
2019-02-21T18:00:17.265Z,92.10
2019-02-21T18:02:45.824Z,92.30
2019-02-21T18:05:14.097Z,92.30
2019-02-21T18:07:42.427Z,92.50
2019-02-21T18:10:13.526Z,92.40
2019-02-21T18:12:41.792Z,92.90
2019-02-21T18:15:12.099Z,92.90
2019-02-21T18:17:40.594Z,92.90
2019-02-21T18:20:11.169Z,93.30
2019-02-21T18:22:39.436Z,93.30
2019-02-21T18:25:18.136Z,93.60
2019-02-21T18:27:46.389Z,93.40
2019-02-21T18:30:16.609Z,93.40
2019-02-21T18:32:44.912Z,93.40
2019-02-21T18:35:13.243Z,93.60
2019-02-21T18:37:47.432Z,93.80
2019-02-21T18:40:20.653Z,93.90
2019-02-21T18:42:48.001Z,93.90
2019-02-21T18:45:16.292Z,94.20
2019-02-21T18:47:45.193Z,94.10
2019-02-21T18:50:14.389Z,94.10
2019-02-21T18:52:42.662Z,94.20
2019-02-21T18:55:10.970Z,94.30
2019-02-21T18:57:39.252Z,94.40
2019-02-21T19:00:20.191Z,94.60
2019-02-21T19:02:48.476Z,94.70
2019-02-21T19:05:16.817Z,94.80
2019-02-21T19:07:45.118Z,95.00
2019-02-21T19:10:34.421Z,95.00
2019-02-21T19:13:02.784Z,95.30
2019-02-21T19:15:31.052Z,95.40
2019-02-21T19:17:59.307Z,95.30
2019-02-21T19:20:27.603Z,95.40
2019-02-21T19:22:55.967Z,95.60
2019-02-21T19:25:24.242Z,95.60
2019-02-21T19:27:52.648Z,95.40
2019-02-21T19:30:27.263Z,95.70
2019-02-21T19:32:55.531Z,95.70
2019-02-21T19:35:23.841Z,95.70
2019-02-21T19:37:52.096Z,95.90
2019-02-21T19:40:39.847Z,95.90
2019-02-21T19:43:08.114Z,95.90
2019-02-21T19:45:36.386Z,96.10
2019-02-21T19:48:04.739Z,96.30
2019-02-21T19:50:33.030Z,96.40
2019-02-21T19:53:01.319Z,96.50
2019-02-21T19:55:29.612Z,96.50
2019-02-21T19:57:57.964Z,96.40
2019-02-21T20:00:27.541Z,96.60
2019-02-21T20:02:55.840Z,96.70
2019-02-21T20:05:24.137Z,96.80
2019-02-21T20:07:52.392Z,96.90
2019-02-21T20:10:20.700Z,97.00
2019-02-21T20:12:49.068Z,97.20
2019-02-21T20:15:17.344Z,97.10
2019-02-21T20:17:45.691Z,97.30
2019-02-21T20:20:16.988Z,97.30
2019-02-21T20:22:45.357Z,97.10
2019-02-21T20:25:13.754Z,96.90
2019-02-21T20:27:42.019Z,97.20
2019-02-21T20:30:13.123Z,97.40
2019-02-21T20:32:40.733Z,97.40
2019-02-21T20:35:09.064Z,97.60
2019-02-21T20:37:37.323Z,97.70
2019-02-21T20:40:08.253Z,97.40
2019-02-21T20:42:36.512Z,97.90
2019-02-21T20:45:28.997Z,97.50
2019-02-21T20:47:57.304Z,97.70
2019-02-21T20:50:25.562Z,97.60
2019-02-21T20:52:53.892Z,97.50
2019-02-21T20:55:22.218Z,97.80
2019-02-21T20:57:50.478Z,97.70
2019-02-21T21:00:19.127Z,97.80
2019-02-21T21:02:47.383Z,97.80
2019-02-21T21:05:15.663Z,97.70
2019-02-21T21:07:43.967Z,98.00
2019-02-21T21:10:16.364Z,98.00
2019-02-21T21:12:44.736Z,97.90
2019-02-21T21:15:14.415Z,97.90
2019-02-21T21:17:42.689Z,97.90
2019-02-21T21:20:16.917Z,98.00
2019-02-21T21:22:43.552Z,97.90
2019-02-21T21:25:16.932Z,97.90
2019-02-21T21:27:45.197Z,98.00
2019-02-21T21:30:15.020Z,98.00
2019-02-21T21:32:43.295Z,98.00
2019-02-21T21:35:11.646Z,98.00
2019-02-21T21:37:39.972Z,98.20
2019-02-21T21:40:13.153Z,97.90
2019-02-21T21:42:41.492Z,98.40
2019-02-21T21:45:17.576Z,98.40
2019-02-21T21:47:45.844Z,98.30
2019-02-21T21:50:41.365Z,98.40
2019-02-21T21:53:09.625Z,98.60
2019-02-21T21:55:37.890Z,98.70
2019-02-21T21:58:06.179Z,98.70
2019-02-21T22:00:34.507Z,99.00
2019-02-21T22:03:02.771Z,99.00
2019-02-21T22:05:31.059Z,99.00
2019-02-21T22:07:59.315Z,99.10
2019-02-21T22:10:45.610Z,98.90
2019-02-21T22:13:51.356Z,99.00
2019-02-21T22:16:19.665Z,99.10
2019-02-21T22:18:48.031Z,99.10
2019-02-21T22:21:16.409Z,99.30
2019-02-21T22:23:44.915Z,99.40
2019-02-21T22:26:13.180Z,99.50
2019-02-21T22:28:41.448Z,99.40
2019-02-21T22:31:09.921Z,99.50
2019-02-21T22:33:38.184Z,99.40
2019-02-21T22:36:06.456Z,99.40
2019-02-21T22:38:34.765Z,99.30
2019-02-21T22:41:03.030Z,99.30
2019-02-21T22:43:31.363Z,99.60
2019-02-21T22:45:59.652Z,99.60
2019-02-21T22:48:27.972Z,99.60
2019-02-21T22:50:56.235Z,99.70
2019-02-21T22:53:24.525Z,99.80
2019-02-21T22:55:52.800Z,99.60
2019-02-21T22:58:21.079Z,99.70
2019-02-21T23:00:56.946Z,99.80
2019-02-21T23:03:31.581Z,99.90
2019-02-21T23:06:39.150Z,99.90
2019-02-21T23:09:46.767Z,99.90
2019-02-21T23:12:15.248Z,99.90
2019-02-21T23:14:43.521Z,99.90
2019-02-21T23:17:11.901Z,99.90
2019-02-21T23:19:40.308Z,99.90
2019-02-21T23:22:08.576Z,99.90
2019-02-21T23:24:36.943Z,99.90
2019-02-21T23:27:05.225Z,99.90
2019-02-21T23:29:33.493Z,99.90
2019-02-21T23:32:03.267Z,99.90
2019-02-21T23:34:33.492Z,99.90
2019-02-21T23:37:01.743Z,99.90
2019-02-21T23:39:37.807Z,99.90
2019-02-21T23:42:00.133Z,99.90
2019-02-21T23:44:28.481Z,99.90
2019-02-21T23:46:56.822Z,99.90
2019-02-21T23:49:25.102Z,99.90
2019-02-21T23:51:53.355Z,99.90
2019-02-21T23:54:21.616Z,99.90
2019-02-21T23:56:49.900Z,99.90
2019-02-21T23:59:18.155Z,99.90
